Aeroporto :
LOGIN :

Iscrizione | Disclaimer

   EN    FR    IT 

 










Sommario :    VFR   VFR Marginale   IFR   IFR Intensivo   IFR Molto Intensivo
Visibilità : 
Base nubi : 
>= 8 km
>= 3000ft
5 / 8 km
1000 / 3000 ft
1500m / 5 km
500 / 1000 ft
800 / 1500m
200 / 500 ft
< 800m
< 200 ft
Simboli :   Temporali  Nebbia  Neve Forte  Precipitazioni Forti  Vento > 20 kt
SIGMETs :   Varie  Temporali  Ghiacco  Turbolenza  Onda orograficha  Ceneri Vulcaniche






- Altitudine del aeroporto : 26 ft


ETNT - Wittmundhaven AB

ULTIMO METAR :
  • 231120Z 23004KT 9999 -RA SCT019 BKN034 05/04 Q1003 RERA BLU

METARs OBSOLETI :
  • 231020Z 23007KT 9999 RA SCT009 SCT015 BKN030 05/04 Q1004 BLU
  • 230920Z 22009KT 9000 RA FEW009 BKN015 BKN028 05/04 Q1005 WHT
  • 230850Z 22008KT 9000 -RA SCT009 BKN015 05/04 Q1006 WHT

TAF TAF ETNT
Valido dal 23 a 12 ore il 23 a 21 ore UTC


231100Z 2312/2321 24010KT 9999 NSW SCT010 BKN025
TEMPO 2312/2319 28020G30KT 4000 RA BKN010 BKN020
TEMPO 2319/2321 28015G35KT 6000 NSW BKN015 BY ETGL



MetMap, La meteo Aeronautica in un colpo d'occhio ! - Copyright ORBIFLY Dicembre 2007 - Disclaimer

ORBIFLY MET'MAP TEAM :

Programmazione e sviluppo : Alexandra Zaïnal
Concezione : Baudouin d'Aumeries
Aiuto per la programmazione : Marc-Olivier Méhu
Supporto tecnico e logistico : Manuel Goepfert
Aiuto per la traduzione : Arnaldo La Scala

Contatto : metmap@orbifly.com




FONTI E CREDITI :

   NOAA